Easton-in-Gordano, United Kingdom
Current Conditions -  °F | °C
As of 2:20 PM on Thursday 30 Oct 2014 (Local Time) from EGGD Reporting Station
Broken Clouds Broken Clouds  
Wind Chill: 61°   Ceiling: 600
Heat Index: 61°   Visibility: 5mi
Dew Point: 57°   Wind: 9mph
Humidity: 88%   Direction: 170°S
Pressure: 30"   Gusts: NA
Location:  51.48°N, 2.7°W
Report Text: EGGD 301420Z 17008KT 140V210 8000 BKN006 16/14 Q1016
Loading
Personal Weather Stations






























Interactive Weather Map
Tropical Storm Tracking
New forecast layout! Learn more

10-Day Weather Forecast

Advertisements
Track Severe Weather on mobile